Sawyerville, Illinois
Current Conditions -  °F | °C
As of 1:15 PM on Saturday 25 Oct 2014 (Local Time) from K3LF Reporting Station
Clear Clear  
Wind Chill: 74°   Ceiling: Unl
Heat Index: 74°   Visibility: 10mi
Dew Point: 56°   Wind: 10mph
Humidity: 54%   Direction: 340°NNW
Pressure: 30.02"   Gusts: NA
Location:  39.08°N, 89.81°W
Report Text: K3LF 251815Z AUTO 34009KT 10SM CLR 23/13 A3002 RMK AO2 T02320133
Loading
Personal Weather Stations






























Interactive Weather Map
Tropical Storm Tracking
New forecast layout! Learn more

10-Day Weather Forecast

Advertisements
Track Severe Weather on mobile